Terminal Aerodrome Forecast
Issued by NWS

Home | Current Version | Previous Version | Text Only | Print | Product List | Glossary On
Versions: 1 2 3 4 5 6 7 8 9 10 11 12 13 14
000
FTUS45 KRIW 302300
TAFJAC
TAF
KJAC 302337Z 3100/3124 23009KT P6SM VCSH SCT070 BKN090
     FM310800 18007KT P6SM VCSH SCT050 BKN090
     FM311500 23012KT P6SM VCSH SCT015 BKN025
     FM311800 27013KT P6SM VCSH BKN030 OVC070
     FM312100 27012KT P6SM BKN040
      AMD LTD TO CLD VIS AND WIND=

USA.gov is the U.S. government's official web portal to all federal, state and local government web resources and services.